Luis Lopez, New Mexico
Current Conditions -  °F | °C
As of 5:15 PM on Monday 20 Oct 2014 (Local Time) from KONM Reporting Station
Broken Clouds Broken Clouds  
Wind Chill: 60°   Ceiling: 8000
Heat Index: 60°   Visibility: 10mi
Dew Point: 51°   Wind: 6mph
Humidity: 72%   Direction: 330°NNW
Pressure: 30.13"   Gusts: NA
Location:  33.8946°N, 106.565°W
Report Text: KONM 202315Z AUTO 33005KT 10SM BKN080 BKN090 BKN110 16/11 A3013 RMK AO2 LTG DSNT E AND SE T01580108
Loading
Personal Weather Stations






























Interactive Weather Map
Tropical Storm Tracking
New forecast layout! Learn more

10-Day Weather Forecast

Advertisements
Track Severe Weather on mobile